createdAt,value
2017-11-17T00:02:08.487Z,40.47
2017-11-17T00:04:43.271Z,38.15
2017-11-17T00:07:12.191Z,45.55
2017-11-17T00:09:40.387Z,38.78
2017-11-17T00:12:08.540Z,46.40
2017-11-17T00:14:41.655Z,38.80
2017-11-17T00:17:10.447Z,42.10
2017-11-17T00:19:38.598Z,40.95
2017-11-17T00:22:06.761Z,41.80
2017-11-17T00:24:36.107Z,46.22
2017-11-17T00:27:04.745Z,53.47
2017-11-17T00:29:32.884Z,48.30
2017-11-17T00:32:01.507Z,44.58
2017-11-17T00:34:36.128Z,48.40
2017-11-17T00:37:09.022Z,39.05
2017-11-17T00:39:37.192Z,44.28
2017-11-17T00:42:11.192Z,45.00
2017-11-17T00:44:39.374Z,45.72
2017-11-17T00:47:07.793Z,48.58
2017-11-17T00:49:35.990Z,50.55
2017-11-17T00:52:04.156Z,44.90
2017-11-17T00:54:32.321Z,39.22
2017-11-17T00:57:00.496Z,42.15
2017-11-17T00:59:28.672Z,44.35
2017-11-17T01:01:56.817Z,55.92
2017-11-17T01:04:25.990Z,49.35
2017-11-17T01:06:54.163Z,42.45
2017-11-17T01:09:22.307Z,45.47
2017-11-17T01:11:50.483Z,45.17
2017-11-17T01:14:25.341Z,48.90
2017-11-17T01:16:57.221Z,43.28
2017-11-17T01:19:25.373Z,39.97
2017-11-17T01:21:53.570Z,44.15
2017-11-17T01:24:23.679Z,39.40
2017-11-17T01:26:51.853Z,48.38
2017-11-17T01:29:20.027Z,42.70
2017-11-17T01:31:48.178Z,50.90
2017-11-17T01:34:21.495Z,52.70
2017-11-17T01:36:49.644Z,44.47
2017-11-17T01:39:18.677Z,41.45
2017-11-17T01:41:46.838Z,51.03
2017-11-17T01:44:15.817Z,44.17
2017-11-17T01:46:43.967Z,47.17
2017-11-17T01:49:12.152Z,52.40
2017-11-17T01:51:41.088Z,42.22
2017-11-17T01:54:09.334Z,50.10
2017-11-17T01:56:37.497Z,51.53
2017-11-17T01:59:06.415Z,42.42
2017-11-17T02:01:34.591Z,47.40
2017-11-17T02:04:02.852Z,51.22
2017-11-17T02:06:31.019Z,43.33
2017-11-17T02:08:59.936Z,42.05
2017-11-17T02:11:28.110Z,46.08
2017-11-17T02:13:56.359Z,35.53
2017-11-17T02:16:24.523Z,53.65
2017-11-17T02:18:53.460Z,35.50
2017-11-17T02:21:21.620Z,41.72
2017-11-17T02:23:50.582Z,47.40
2017-11-17T02:26:20.273Z,36.25
2017-11-17T02:28:48.442Z,37.95
2017-11-17T02:31:16.613Z,43.10
2017-11-17T02:33:44.826Z,47.92
2017-11-17T02:36:12.998Z,44.13
2017-11-17T02:38:41.941Z,39.95
2017-11-17T02:41:10.117Z,48.33
2017-11-17T02:43:38.345Z,37.63
2017-11-17T02:46:06.495Z,41.10
2017-11-17T02:48:35.429Z,52.05
2017-11-17T02:51:03.603Z,44.85
2017-11-17T02:53:31.869Z,44.05
2017-11-17T02:56:00.021Z,41.67
2017-11-17T02:58:28.950Z,40.38
2017-11-17T03:00:57.113Z,43.45
2017-11-17T03:03:26.324Z,41.70
2017-11-17T03:05:54.485Z,39.83
2017-11-17T03:08:22.641Z,45.35
2017-11-17T03:10:51.802Z,40.33
2017-11-17T03:13:20.215Z,44.83
2017-11-17T03:15:49.134Z,44.58
2017-11-17T03:18:17.293Z,43.08
2017-11-17T03:20:45.446Z,50.22
2017-11-17T03:23:14.665Z,47.75
2017-11-17T03:25:42.822Z,41.80
2017-11-17T03:28:11.767Z,48.80
2017-11-17T03:30:39.954Z,47.97
2017-11-17T03:33:08.178Z,49.35
2017-11-17T03:35:36.579Z,39.38
2017-11-17T03:38:04.730Z,40.90
2017-11-17T03:40:32.884Z,46.28
2017-11-17T03:43:01.913Z,46.70
2017-11-17T03:45:30.072Z,48.22
2017-11-17T03:47:58.244Z,44.78
2017-11-17T03:50:26.443Z,45.17
2017-11-17T03:52:56.640Z,51.70
2017-11-17T03:55:24.794Z,44.17
2017-11-17T03:57:53.720Z,40.17
2017-11-17T04:00:22.511Z,46.13
2017-11-17T04:02:56.976Z,44.40
2017-11-17T04:05:25.157Z,45.88
2017-11-17T04:07:56.641Z,49.25
2017-11-17T04:10:24.814Z,47.33
2017-11-17T04:12:53.103Z,46.85
2017-11-17T04:15:21.256Z,48.22
2017-11-17T04:17:50.177Z,50.72
2017-11-17T04:20:19.118Z,50.45
2017-11-17T04:22:47.262Z,47.58
2017-11-17T04:25:15.464Z,42.15
2017-11-17T04:27:43.632Z,47.10
2017-11-17T04:30:11.866Z,49.65
2017-11-17T04:32:40.225Z,46.80
2017-11-17T04:35:08.381Z,50.72
2017-11-17T04:37:37.938Z,45.60
2017-11-17T04:40:06.109Z,43.90
2017-11-17T04:42:34.312Z,47.83
2017-11-17T04:45:03.194Z,39.17
2017-11-17T04:47:31.351Z,42.97
2017-11-17T04:50:00.475Z,48.55
2017-11-17T04:52:28.671Z,54.20
2017-11-17T04:54:56.910Z,55.67
2017-11-17T04:57:25.083Z,49.92
2017-11-17T04:59:53.255Z,48.28
2017-11-17T05:02:21.430Z,56.58
2017-11-17T05:04:50.582Z,51.45
2017-11-17T05:07:18.754Z,46.40
2017-11-17T05:09:46.922Z,41.20
2017-11-17T05:12:15.094Z,48.53
2017-11-17T05:14:46.192Z,51.97
2017-11-17T05:17:16.300Z,52.65
2017-11-17T05:19:45.020Z,48.50
2017-11-17T05:22:13.214Z,53.90
2017-11-17T05:24:41.568Z,45.97
2017-11-17T05:27:09.789Z,46.15
2017-11-17T05:29:37.952Z,51.97
2017-11-17T05:32:06.110Z,56.53
2017-11-17T05:34:42.068Z,51.37
2017-11-17T05:37:11.016Z,41.13
2017-11-17T05:39:41.197Z,53.70
2017-11-17T05:42:09.362Z,40.78
2017-11-17T05:44:41.836Z,55.92
2017-11-17T05:47:10.265Z,56.10
2017-11-17T05:49:38.432Z,47.55
2017-11-17T05:52:06.605Z,46.37
2017-11-17T05:54:35.494Z,42.92
2017-11-17T05:57:03.672Z,44.72
2017-11-17T05:59:32.059Z,49.72
2017-11-17T06:02:00.275Z,51.00
2017-11-17T06:04:33.047Z,52.97
2017-11-17T06:07:08.956Z,40.55
2017-11-17T06:09:37.230Z,48.15
2017-11-17T06:15:03.792Z,45.50
2017-11-17T06:17:35.325Z,53.42
2017-11-17T06:20:03.502Z,55.95
2017-11-17T06:22:32.374Z,49.50
2017-11-17T06:25:02.946Z,50.83
2017-11-17T06:27:31.186Z,53.15
2017-11-17T06:29:59.503Z,52.55
2017-11-17T06:32:27.755Z,55.10
2017-11-17T06:34:56.088Z,55.80
2017-11-17T06:37:24.365Z,48.78
2017-11-17T06:39:52.569Z,38.47
2017-11-17T06:42:21.387Z,44.42
2017-11-17T06:44:49.701Z,47.40
2017-11-17T06:47:19.076Z,45.20
2017-11-17T06:49:47.351Z,44.85
2017-11-17T06:52:15.753Z,39.67
2017-11-17T06:54:47.753Z,48.15
2017-11-17T06:57:16.001Z,52.85
2017-11-17T06:59:44.316Z,38.53
2017-11-17T07:02:12.821Z,31.45
2017-11-17T07:04:41.128Z,38.45
2017-11-17T07:07:09.330Z,39.78
2017-11-17T07:09:37.529Z,44.03
2017-11-17T07:12:05.768Z,42.20
2017-11-17T07:14:34.913Z,39.63
2017-11-17T07:17:03.112Z,37.70
2017-11-17T07:19:31.472Z,39.15
2017-11-17T07:22:00.637Z,40.67
2017-11-17T07:24:30.764Z,42.03
2017-11-17T07:26:59.862Z,38.30
2017-11-17T07:29:28.899Z,33.78
2017-11-17T07:31:57.244Z,44.40
2017-11-17T07:34:25.515Z,41.25
2017-11-17T07:36:54.481Z,40.78
2017-11-17T07:39:22.692Z,34.25
2017-11-17T07:41:50.926Z,39.95
2017-11-17T07:44:19.290Z,43.70
2017-11-17T07:46:48.426Z,42.67
2017-11-17T07:49:17.469Z,42.03
2017-11-17T07:51:46.508Z,28.30
2017-11-17T07:54:16.915Z,34.85
2017-11-17T07:56:45.874Z,36.00
2017-11-17T07:59:14.440Z,36.05
2017-11-17T08:01:42.708Z,40.35
2017-11-17T08:04:10.890Z,42.62
2017-11-17T08:06:39.104Z,45.63
2017-11-17T08:09:07.293Z,38.97
2017-11-17T08:11:35.438Z,40.75
2017-11-17T08:14:04.688Z,40.20
2017-11-17T08:16:32.956Z,47.05
2017-11-17T08:19:01.958Z,50.97
2017-11-17T08:21:31.137Z,44.88
2017-11-17T08:24:02.939Z,44.22
2017-11-17T08:26:33.150Z,44.80
2017-11-17T08:29:01.451Z,41.05
2017-11-17T08:31:29.654Z,43.65
2017-11-17T08:33:58.814Z,41.30
2017-11-17T08:36:27.516Z,41.53
2017-11-17T08:38:55.666Z,43.55
2017-11-17T08:41:24.595Z,41.08
2017-11-17T08:43:52.747Z,42.42
2017-11-17T08:46:20.990Z,39.33
2017-11-17T08:48:49.233Z,38.45
2017-11-17T08:51:18.515Z,44.35
2017-11-17T08:53:46.867Z,45.60
2017-11-17T08:56:15.196Z,46.22
2017-11-17T08:58:44.220Z,37.45
2017-11-17T09:01:12.530Z,31.15
2017-11-17T09:03:40.846Z,45.45
2017-11-17T09:06:09.110Z,44.63
2017-11-17T09:08:37.359Z,52.95
2017-11-17T09:11:06.503Z,36.38
2017-11-17T09:13:34.761Z,44.28
2017-11-17T09:16:03.133Z,46.83
2017-11-17T09:18:31.373Z,42.70
2017-11-17T09:21:00.035Z,39.35
2017-11-17T09:23:28.262Z,38.13
2017-11-17T09:25:56.479Z,38.53
2017-11-17T09:28:25.237Z,37.80
2017-11-17T09:30:53.393Z,31.65
2017-11-17T09:33:21.553Z,30.15
2017-11-17T09:35:49.712Z,35.33
2017-11-17T09:38:17.884Z,30.85
2017-11-17T09:40:46.058Z,34.10
2017-11-17T09:43:17.912Z,37.45
2017-11-17T09:45:46.197Z,32.95
2017-11-17T09:48:14.382Z,29.63
2017-11-17T09:50:42.559Z,35.50
2017-11-17T09:53:10.815Z,33.55
2017-11-17T09:55:38.970Z,36.60
2017-11-17T09:58:07.418Z,38.35
2017-11-17T10:00:35.572Z,31.92
2017-11-17T10:03:03.730Z,32.65
2017-11-17T10:05:31.902Z,40.45
2017-11-17T10:08:00.079Z,32.85
2017-11-17T10:10:28.243Z,40.22
2017-11-17T10:12:57.265Z,38.28
2017-11-17T10:15:25.423Z,31.70
2017-11-17T10:17:53.593Z,36.38
2017-11-17T10:20:21.760Z,28.73
2017-11-17T10:22:49.923Z,44.40
2017-11-17T10:25:18.088Z,34.97
2017-11-17T10:27:46.261Z,36.92
2017-11-17T10:30:14.424Z,37.17
2017-11-17T10:32:43.358Z,34.25
2017-11-17T10:35:11.526Z,30.70
2017-11-17T10:37:39.673Z,31.30
2017-11-17T10:40:08.600Z,35.53
2017-11-17T10:42:36.839Z,38.17
2017-11-17T10:45:05.015Z,33.03
2017-11-17T10:47:33.217Z,32.38
2017-11-17T10:50:02.180Z,27.08
2017-11-17T10:52:30.350Z,26.92
2017-11-17T10:54:59.280Z,27.05
2017-11-17T10:57:27.451Z,20.05
2017-11-17T10:59:57.536Z,19.95
2017-11-17T11:02:25.866Z,18.95
2017-11-17T11:04:54.018Z,24.52
2017-11-17T11:07:22.247Z,30.08
2017-11-17T11:09:51.178Z,26.17
2017-11-17T11:12:19.359Z,24.45
2017-11-17T11:14:47.518Z,30.05
2017-11-17T11:17:17.006Z,32.38
2017-11-17T11:19:45.952Z,29.12
2017-11-17T11:22:14.131Z,29.17
2017-11-17T11:24:42.467Z,29.92
2017-11-17T11:27:11.568Z,26.73
2017-11-17T11:29:39.744Z,34.47
2017-11-17T11:32:07.915Z,36.88
2017-11-17T11:34:43.843Z,34.83
2017-11-17T11:37:12.860Z,41.15
2017-11-17T11:39:42.074Z,40.35
2017-11-17T11:42:10.231Z,46.88
2017-11-17T11:44:39.423Z,34.85
2017-11-17T11:47:07.605Z,41.97
2017-11-17T11:49:35.760Z,32.38
2017-11-17T11:52:03.915Z,38.40
2017-11-17T11:54:38.537Z,44.63
2017-11-17T11:57:06.695Z,40.03
2017-11-17T11:59:38.434Z,36.47
2017-11-17T12:02:06.591Z,37.95
2017-11-17T12:04:35.469Z,38.05
2017-11-17T12:07:03.647Z,34.85
2017-11-17T12:09:31.802Z,26.30
2017-11-17T12:11:59.973Z,24.85
2017-11-17T12:14:28.587Z,33.58
2017-11-17T12:16:56.797Z,31.85
2017-11-17T12:19:24.972Z,36.42
2017-11-17T12:21:53.147Z,35.10
2017-11-17T12:27:14.749Z,31.55
2017-11-17T12:29:43.018Z,33.03
2017-11-17T12:32:11.190Z,27.60
2017-11-17T12:34:40.370Z,32.53
2017-11-17T12:37:09.206Z,35.70
2017-11-17T12:39:37.377Z,42.55
2017-11-17T12:42:05.539Z,34.85
2017-11-17T12:44:33.697Z,32.70
2017-11-17T12:47:02.779Z,31.65
2017-11-17T12:49:31.715Z,32.72
2017-11-17T12:51:59.862Z,36.65
2017-11-17T12:54:29.085Z,36.00
2017-11-17T12:56:58.085Z,33.03
2017-11-17T12:59:26.251Z,41.70
2017-11-17T13:01:54.399Z,36.75
2017-11-17T13:04:22.559Z,34.17
2017-11-17T13:06:50.721Z,33.50
2017-11-17T13:09:19.646Z,28.38
2017-11-17T13:11:47.830Z,43.95
2017-11-17T13:14:19.773Z,48.95
2017-11-17T13:16:51.581Z,41.92
2017-11-17T13:19:20.368Z,38.58
2017-11-17T13:21:50.533Z,38.45
2017-11-17T13:24:22.352Z,38.63
2017-11-17T13:26:50.624Z,30.70
2017-11-17T13:29:20.204Z,33.60
2017-11-17T13:31:48.378Z,35.42
2017-11-17T13:34:16.830Z,33.72
2017-11-17T13:36:45.011Z,33.83
2017-11-17T13:39:13.185Z,43.20
2017-11-17T13:41:41.346Z,41.08
2017-11-17T13:44:14.130Z,50.30
2017-11-17T13:46:44.774Z,46.05
2017-11-17T13:49:13.094Z,44.28
2017-11-17T13:51:41.316Z,35.83
2017-11-17T13:54:10.323Z,36.17
2017-11-17T13:56:38.491Z,31.70
2017-11-17T13:59:06.716Z,34.63
2017-11-17T14:01:34.879Z,32.28
2017-11-17T14:04:03.119Z,40.92
2017-11-17T14:06:32.928Z,36.60
2017-11-17T14:09:01.090Z,30.37
2017-11-17T14:11:30.743Z,39.97
2017-11-17T14:14:02.791Z,31.73
2017-11-17T14:16:31.098Z,26.67
2017-11-17T14:19:00.082Z,33.78
2017-11-17T14:21:29.139Z,30.92
2017-11-17T14:23:57.953Z,33.17
2017-11-17T14:26:26.125Z,36.05
2017-11-17T14:28:54.296Z,38.45
2017-11-17T14:31:22.480Z,35.72
2017-11-17T14:33:50.650Z,28.87
2017-11-17T14:36:19.083Z,31.98
2017-11-17T14:38:47.837Z,40.33
2017-11-17T14:41:16.070Z,34.28
2017-11-17T14:43:44.352Z,28.25
2017-11-17T14:46:12.520Z,27.48
2017-11-17T14:48:41.260Z,32.13
2017-11-17T14:51:09.426Z,31.67
2017-11-17T14:53:37.936Z,37.30
2017-11-17T14:56:06.092Z,31.50
2017-11-17T14:58:34.553Z,30.48
2017-11-17T15:01:02.708Z,29.92
2017-11-17T15:03:31.168Z,29.80
2017-11-17T15:05:59.334Z,42.53
2017-11-17T15:08:28.312Z,29.37
2017-11-17T15:10:56.496Z,42.38
2017-11-17T15:13:25.551Z,41.10
2017-11-17T15:15:53.718Z,38.38
2017-11-17T15:18:21.892Z,40.70
2017-11-17T15:20:50.052Z,37.15
2017-11-17T15:23:19.080Z,37.75
2017-11-17T15:25:47.268Z,41.17
2017-11-17T15:28:15.427Z,40.70
2017-11-17T15:30:43.586Z,57.20
2017-11-17T15:33:12.734Z,53.30
2017-11-17T15:35:40.931Z,49.95
2017-11-17T15:38:09.882Z,43.30
2017-11-17T15:40:38.496Z,44.13
2017-11-17T15:43:12.882Z,48.03
2017-11-17T15:45:41.070Z,49.75
2017-11-17T15:48:15.003Z,46.80
2017-11-17T15:50:43.885Z,56.28
2017-11-17T15:53:15.817Z,62.72
2017-11-17T15:55:46.922Z,54.13
2017-11-17T15:58:15.900Z,49.33
2017-11-17T16:00:44.903Z,62.55
2017-11-17T16:03:13.162Z,48.85
2017-11-17T16:05:41.343Z,48.95
2017-11-17T16:08:09.513Z,52.00
2017-11-17T16:10:37.688Z,49.03
2017-11-17T16:13:07.609Z,53.10
2017-11-17T16:15:37.451Z,51.30
2017-11-17T16:18:05.610Z,53.15
2017-11-17T16:20:34.316Z,59.15
2017-11-17T16:23:03.380Z,59.72
2017-11-17T16:25:33.224Z,53.55
2017-11-17T16:28:01.397Z,52.40
2017-11-17T16:30:29.604Z,55.58
2017-11-17T16:32:58.702Z,59.25
2017-11-17T16:35:27.622Z,59.97
2017-11-17T16:37:56.700Z,60.35
2017-11-17T16:40:25.142Z,65.40
2017-11-17T16:42:53.989Z,69.85
2017-11-17T16:45:23.145Z,66.57
2017-11-17T16:47:51.319Z,59.92
2017-11-17T16:50:20.531Z,69.25
2017-11-17T16:52:49.750Z,75.55
2017-11-17T16:55:18.972Z,59.67
2017-11-17T16:57:47.141Z,55.25
2017-11-17T17:00:15.736Z,67.72
2017-11-17T17:02:43.883Z,60.40
2017-11-17T17:05:12.056Z,59.95
2017-11-17T17:07:40.237Z,57.05
2017-11-17T17:10:08.710Z,62.13
2017-11-17T17:12:36.915Z,63.03
2017-11-17T17:15:05.690Z,71.68
2017-11-17T17:17:33.893Z,72.12
2017-11-17T17:20:02.087Z,64.75
2017-11-17T17:22:30.242Z,70.15
2017-11-17T17:24:58.402Z,76.05
2017-11-17T17:27:28.303Z,59.13
2017-11-17T17:29:56.599Z,62.97
2017-11-17T17:32:25.609Z,59.88
2017-11-17T17:34:53.774Z,61.20
2017-11-17T17:37:21.924Z,64.50
2017-11-17T17:39:50.091Z,63.30
2017-11-17T17:42:18.249Z,61.58
2017-11-17T17:44:46.621Z,61.35
2017-11-17T17:47:14.783Z,64.60
2017-11-17T17:49:43.699Z,51.42
2017-11-17T17:52:12.798Z,58.17
2017-11-17T17:54:41.068Z,58.97
2017-11-17T17:57:09.212Z,58.00
2017-11-17T17:59:37.360Z,51.35
2017-11-17T18:02:05.532Z,56.78
2017-11-17T18:04:33.706Z,59.38
2017-11-17T18:07:01.894Z,48.97
2017-11-17T18:09:30.291Z,48.58
2017-11-17T18:11:58.456Z,47.40
2017-11-17T18:14:26.613Z,53.65
2017-11-17T18:16:54.780Z,38.65
2017-11-17T18:19:23.680Z,55.45
2017-11-17T18:21:51.859Z,53.50
2017-11-17T18:24:20.971Z,54.53
2017-11-17T18:26:49.963Z,50.75
2017-11-17T18:29:18.126Z,48.45
2017-11-17T18:31:46.344Z,52.70
2017-11-17T18:34:14.630Z,52.83
2017-11-17T18:36:42.858Z,41.83
2017-11-17T18:39:11.867Z,48.95
2017-11-17T18:41:40.066Z,52.78
2017-11-17T18:44:09.368Z,55.67
2017-11-17T18:46:37.576Z,53.08
2017-11-17T18:49:06.487Z,66.97
2017-11-17T18:51:34.702Z,48.03
2017-11-17T18:54:06.835Z,53.05
2017-11-17T18:56:35.109Z,54.70
2017-11-17T18:59:03.315Z,58.95
2017-11-17T19:01:32.270Z,51.85
2017-11-17T19:04:00.494Z,44.30
2017-11-17T19:06:28.675Z,45.97
2017-11-17T19:08:56.834Z,49.97
2017-11-17T19:11:25.080Z,51.40
2017-11-17T19:13:55.233Z,48.50
2017-11-17T19:16:23.442Z,41.45
2017-11-17T19:18:52.332Z,50.55
2017-11-17T19:21:20.504Z,55.40
2017-11-17T19:23:48.755Z,46.17
2017-11-17T19:26:16.906Z,50.70
2017-11-17T19:28:45.849Z,51.45
2017-11-17T19:31:14.022Z,51.88
2017-11-17T19:33:43.287Z,50.55
2017-11-17T19:36:12.300Z,45.90
2017-11-17T19:38:41.847Z,49.38
2017-11-17T19:41:10.258Z,51.55
2017-11-17T19:43:39.327Z,49.67
2017-11-17T19:46:07.494Z,43.90
2017-11-17T19:48:35.673Z,48.30
2017-11-17T19:51:03.859Z,49.25
2017-11-17T19:53:32.387Z,47.62
2017-11-17T19:56:00.555Z,45.10
2017-11-17T19:58:28.782Z,50.38
2017-11-17T20:00:56.953Z,54.30
2017-11-17T20:03:26.083Z,45.20
2017-11-17T20:05:55.175Z,54.22
2017-11-17T20:08:23.382Z,46.22
2017-11-17T20:10:52.201Z,55.53
2017-11-17T20:13:20.437Z,42.85
2017-11-17T20:15:49.353Z,53.17
2017-11-17T20:18:17.662Z,50.38
2017-11-17T20:20:45.813Z,54.25
2017-11-17T20:23:17.234Z,57.95
2017-11-17T20:25:45.540Z,51.92
2017-11-17T20:28:13.727Z,47.47
2017-11-17T20:30:43.214Z,44.58
2017-11-17T20:33:17.598Z,49.05
2017-11-17T20:35:49.534Z,47.35
2017-11-17T20:38:18.500Z,45.12
2017-11-17T20:40:46.670Z,48.00
2017-11-17T20:43:15.756Z,41.42
2017-11-17T20:45:46.281Z,42.70
2017-11-17T20:48:14.681Z,40.42
2017-11-17T20:50:42.835Z,41.40
2017-11-17T20:53:11.078Z,43.00
2017-11-17T20:55:39.260Z,41.65
2017-11-17T20:58:07.456Z,42.30
2017-11-17T21:00:35.603Z,42.20
2017-11-17T21:03:04.852Z,42.78
2017-11-17T21:05:33.019Z,44.70
2017-11-17T21:08:01.195Z,50.00
2017-11-17T21:10:29.405Z,44.58
2017-11-17T21:12:57.688Z,39.33
2017-11-17T21:15:25.870Z,50.03
2017-11-17T21:17:54.027Z,45.72
2017-11-17T21:20:22.942Z,44.45
2017-11-17T21:22:51.211Z,46.90
2017-11-17T21:25:19.387Z,44.20
2017-11-17T21:27:47.584Z,40.70
2017-11-17T21:30:16.465Z,35.22
2017-11-17T21:32:44.739Z,41.15
2017-11-17T21:35:12.907Z,50.35
2017-11-17T21:37:41.835Z,39.15
2017-11-17T21:40:10.958Z,36.35
2017-11-17T21:42:39.146Z,36.60
2017-11-17T21:45:08.158Z,37.83
2017-11-17T21:47:36.997Z,33.80
2017-11-17T21:50:05.159Z,36.28
2017-11-17T21:52:33.340Z,37.00
2017-11-17T21:55:01.532Z,35.83
2017-11-17T21:57:29.964Z,34.78
2017-11-17T21:59:59.669Z,33.38
2017-11-17T22:02:29.187Z,39.67
2017-11-17T22:04:57.431Z,39.85
2017-11-17T22:07:25.728Z,37.28
2017-11-17T22:09:53.903Z,43.97
2017-11-17T22:12:22.104Z,37.10
2017-11-17T22:14:50.490Z,33.42
2017-11-17T22:17:19.185Z,27.02
2017-11-17T22:19:47.419Z,36.53
2017-11-17T22:22:16.319Z,34.95
2017-11-17T22:24:46.603Z,37.15
2017-11-17T22:27:14.817Z,36.28
2017-11-17T22:29:42.969Z,33.95
2017-11-17T22:32:11.129Z,36.58
2017-11-17T22:34:39.410Z,34.75
2017-11-17T22:37:07.570Z,40.75
2017-11-17T22:39:36.521Z,33.92
2017-11-17T22:42:04.698Z,35.30
2017-11-17T22:44:32.972Z,39.72
2017-11-17T22:47:01.195Z,42.83
2017-11-17T22:49:29.378Z,36.22
2017-11-17T22:51:57.670Z,35.05
2017-11-17T22:54:26.858Z,44.92
2017-11-17T22:56:55.815Z,45.25
2017-11-17T22:59:24.755Z,35.83
2017-11-17T23:01:52.919Z,34.45
2017-11-17T23:04:21.193Z,47.28
2017-11-17T23:06:56.522Z,37.25
2017-11-17T23:09:24.904Z,37.65
2017-11-17T23:11:53.072Z,40.10
2017-11-17T23:14:22.003Z,33.60
2017-11-17T23:16:50.176Z,37.05
2017-11-17T23:19:18.349Z,36.55
2017-11-17T23:21:46.623Z,34.10
2017-11-17T23:24:14.880Z,28.80
2017-11-17T23:26:43.077Z,31.92
2017-11-17T23:29:11.339Z,28.80
2017-11-17T23:31:39.502Z,29.25
2017-11-17T23:34:11.389Z,27.90
2017-11-17T23:36:39.556Z,25.20
2017-11-17T23:39:07.755Z,28.55
2017-11-17T23:41:35.926Z,27.05
2017-11-17T23:44:04.075Z,31.33
2017-11-17T23:46:32.234Z,30.23
2017-11-17T23:49:00.524Z,33.00
2017-11-17T23:51:29.258Z,31.08
2017-11-17T23:54:00.846Z,31.37
2017-11-17T23:56:29.784Z,29.48
2017-11-17T23:58:58.194Z,31.60
